createdAt,value
2019-04-05T22:10:46.727Z,81.09
2019-04-05T22:11:46.780Z,80.89
2019-04-05T22:12:46.705Z,80.79
2019-04-05T22:13:46.697Z,81.30
2019-04-05T22:14:46.699Z,80.89
2019-04-05T22:15:46.676Z,81.09
2019-04-05T22:16:46.682Z,81.20
2019-04-05T22:17:46.670Z,81.40
2019-04-05T22:18:46.651Z,81.23
2019-04-05T22:19:46.648Z,81.09
2019-04-05T22:20:46.628Z,81.40
2019-04-05T22:21:46.637Z,80.89
2019-04-05T22:22:46.970Z,81.61
2019-04-05T22:23:46.604Z,81.96
2019-04-05T22:24:46.666Z,81.65
2019-04-05T22:25:46.596Z,81.65
2019-04-05T22:26:46.563Z,81.85
2019-04-05T22:27:46.550Z,81.13
2019-04-05T22:28:46.538Z,81.34
2019-04-05T22:29:46.540Z,81.85
2019-04-05T22:30:46.584Z,81.34
2019-04-05T22:31:46.519Z,81.85
2019-04-05T22:32:46.535Z,81.13
2019-04-05T22:33:46.489Z,81.65
2019-04-05T22:34:46.559Z,81.68
2019-04-05T22:35:46.474Z,81.96
2019-04-05T22:36:46.451Z,82.51
2019-04-05T22:37:46.453Z,82.20
2019-04-05T22:38:46.446Z,82.20
2019-04-05T22:39:46.465Z,82.51
2019-04-05T22:40:46.421Z,82.71
2019-04-05T22:41:46.410Z,82.71
2019-04-05T22:42:46.390Z,82.55
2019-04-05T22:43:46.394Z,83.17
2019-04-05T22:44:46.435Z,83.27
2019-04-05T22:45:46.389Z,83.17
2019-04-05T22:46:46.358Z,83.06
2019-04-05T22:47:46.346Z,82.65
2019-04-05T22:48:46.332Z,82.24
2019-04-05T22:49:46.334Z,83.06
2019-04-05T22:50:46.348Z,83.27
2019-04-05T22:51:46.297Z,83.06
2019-04-05T22:52:46.280Z,83.06
2019-04-05T22:53:46.316Z,83.17
2019-04-05T22:54:46.296Z,82.86
2019-04-05T22:55:46.256Z,83.17
2019-04-05T22:56:46.240Z,82.96
2019-04-05T22:57:46.231Z,83.00
2019-04-05T22:58:46.225Z,83.06
2019-04-05T22:59:46.216Z,83.27
2019-04-05T23:00:46.223Z,83.17
2019-04-05T23:01:46.199Z,83.27
2019-04-05T23:02:46.181Z,83.06
2019-04-05T23:03:46.165Z,83.00
2019-04-05T23:04:46.163Z,82.75
2019-04-05T23:05:46.152Z,83.00
2019-04-05T23:06:46.154Z,83.10
2019-04-05T23:07:46.120Z,83.51
2019-04-05T23:08:46.113Z,83.51
2019-04-05T23:09:46.102Z,83.20
2019-04-05T23:10:46.105Z,83.51
2019-04-05T23:11:46.093Z,83.97
2019-04-05T23:12:46.071Z,83.86
2019-04-05T23:13:46.058Z,83.86
2019-04-05T23:14:46.054Z,83.25
2019-04-05T23:15:46.054Z,83.04
2019-04-05T23:16:46.068Z,82.93
2019-04-05T23:17:46.039Z,83.14
2019-04-05T23:18:46.019Z,83.45
2019-04-05T23:19:47.781Z,83.55
2019-04-05T23:20:46.047Z,83.86
2019-04-05T23:21:45.993Z,84.07
2019-04-05T23:22:45.988Z,84.07
2019-04-05T23:23:45.988Z,84.79
2019-04-05T23:24:45.976Z,84.17
2019-04-05T23:25:45.969Z,83.86
2019-04-05T23:26:45.936Z,84.17
2019-04-05T23:27:45.933Z,83.97
2019-04-05T23:28:45.925Z,83.97
2019-04-05T23:29:45.922Z,84.38
2019-04-05T23:30:45.898Z,83.86
2019-04-05T23:31:45.894Z,83.70
2019-04-05T23:32:45.864Z,83.80
2019-04-05T23:33:45.882Z,84.11
2019-04-05T23:34:45.865Z,84.00
2019-04-05T23:35:45.861Z,84.42
2019-04-05T23:36:45.848Z,84.21
2019-04-05T23:37:45.839Z,84.42
2019-04-05T23:38:45.804Z,84.11
2019-04-05T23:39:45.801Z,84.83
2019-04-05T23:40:45.805Z,84.73
2019-04-05T23:41:45.773Z,84.83
2019-04-05T23:42:45.783Z,84.94
2019-04-05T23:43:45.753Z,84.83
2019-04-05T23:44:45.733Z,85.14
2019-04-05T23:45:45.793Z,84.73
2019-04-05T23:46:45.739Z,85.24
2019-04-05T23:47:45.710Z,85.04
2019-04-05T23:48:45.704Z,84.42
2019-04-05T23:49:45.696Z,84.63
2019-04-05T23:50:45.668Z,84.63
2019-04-05T23:51:45.701Z,84.73
2019-04-05T23:52:45.666Z,84.66
2019-04-05T23:53:45.658Z,84.63
2019-04-05T23:54:45.645Z,84.31
2019-04-05T23:55:45.623Z,84.15
2019-04-05T23:56:45.709Z,83.84
2019-04-05T23:57:45.597Z,83.94
2019-04-05T23:58:45.591Z,84.77
2019-04-05T23:59:45.588Z,85.91
